Vestal Center, New York
Current Conditions -  °F | °C
As of 2:53 AM on Thursday 29 Jan 2015 (Local Time) from KBGM Reporting Station
Clear Clear  
Wind Chill:   Ceiling: Unl
Heat Index:   Visibility: 10mi
Dew Point:   Wind: 5mph
Humidity: 83%   Direction: 150°SSE
Pressure: 30.22"   Gusts: NA
Location:  42.0463°N, 76.0314°W
Report Text: KBGM 290753Z AUTO 15004KT 10SM CLR M13/M16 A3022 RMK AO2 SLP263 T11331156
Loading
Personal Weather Stations






























Interactive Weather Map New forecast layout! Learn more

10-Day Weather Forecast

Advertisements
Track Severe Weather on mobile